Time;durP1;ratioP1;P1;durP2;ratioP2;P2;SDS_P1;SDS_P2;PMS_P1;PMS_P2;Temp;Humidity;BMP_temperature;BMP_pressure;BME280_temperature;BME280_humidity;BME280_pressure;Samples;Min_cycle;Max_cycle;Signal;HPM_P1;HPM_P2
2021/08/14 00:01:22;;;;;;;4.60;2.00;;;;;;;;;;4938260;28;20036;-78
2021/08/14 00:03:48;;;;;;;8.73;1.90;;;;;;;;;;4920631;29;20515;-79
2021/08/14 00:06:16;;;;;;;7.30;2.10;;;;;;;;;;4938543;28;20134;-78
2021/08/14 00:08:44;;;;;;;8.65;2.63;;;;;;;;;;4928788;29;20148;-79
2021/08/14 00:11:11;;;;;;;11.73;2.50;;;;;;;;;;4937267;28;20092;-79
2021/08/14 00:13:38;;;;;;;8.40;2.15;;;;;;;;;;4933095;29;20066;-78
2021/08/14 00:16:04;;;;;;;12.68;2.40;;;;;;;;;;4949126;28;20027;-79
2021/08/14 00:18:31;;;;;;;8.20;2.20;;;;;;;;;;4946335;28;20046;-80
2021/08/14 00:20:58;;;;;;;6.70;1.92;;;;;;;;;;4929257;28;20027;-80
2021/08/14 00:23:24;;;;;;;10.35;2.17;;;;;;;;;;4947760;28;20495;-78
2021/08/14 00:25:51;;;;;;;8.23;2.03;;;;;;;;;;4926845;28;20051;-79
2021/08/14 00:28:17;;;;;;;6.90;2.35;;;;;;;;;;4940804;28;20042;-78
2021/08/14 00:30:44;;;;;;;11.02;2.33;;;;;;;;;;4939408;28;20559;-78
2021/08/14 00:33:13;;;;;;;8.65;2.20;;;;;;;;;;4914358;28;20046;-77
2021/08/14 00:35:40;;;;;;;8.90;1.90;;;;;;;;;;4933213;29;20183;-78
2021/08/14 00:38:07;;;;;;;7.38;2.67;;;;;;;;;;4913993;29;20079;-78
2021/08/14 00:40:39;;;;;;;9.95;2.22;;;;;;;;;;4940989;28;20043;-79
2021/08/14 00:43:06;;;;;;;9.55;2.55;;;;;;;;;;4922367;28;20039;-78
2021/08/14 00:45:44;;;;;;;9.40;2.40;;;;;;;;;;4933830;28;20051;-78
2021/08/14 00:48:14;;;;;;;11.50;2.22;;;;;;;;;;4941161;28;20039;-78
2021/08/14 00:50:46;;;;;;;8.63;2.17;;;;;;;;;;4938878;28;20756;-78
2021/08/14 00:53:13;;;;;;;8.60;2.22;;;;;;;;;;4924885;29;20098;-79
2021/08/14 00:55:43;;;;;;;7.10;2.00;;;;;;;;;;4928817;28;20035;-78
2021/08/14 00:58:10;;;;;;;7.35;1.88;;;;;;;;;;4900599;29;20131;-78
2021/08/14 01:00:39;;;;;;;9.25;2.20;;;;;;;;;;4930420;28;20043;-78
2021/08/14 01:03:09;;;;;;;8.52;2.20;;;;;;;;;;4907316;29;20508;-77
2021/08/14 01:05:40;;;;;;;9.20;2.00;;;;;;;;;;4902306;29;20530;-79
2021/08/14 01:08:07;;;;;;;9.68;2.33;;;;;;;;;;4935886;28;20031;-77
2021/08/14 01:10:36;;;;;;;7.60;2.00;;;;;;;;;;4935467;28;20080;-78
2021/08/14 01:13:06;;;;;;;8.13;2.10;;;;;;;;;;4907393;29;20046;-78
2021/08/14 01:15:32;;;;;;;10.07;2.40;;;;;;;;;;4940613;28;20035;-78
2021/08/14 01:17:59;;;;;;;7.90;2.30;;;;;;;;;;4938954;28;20098;-78
2021/08/14 01:20:34;;;;;;;9.18;2.72;;;;;;;;;;4930959;28;20130;-78
2021/08/14 01:23:05;;;;;;;7.72;2.53;;;;;;;;;;4935305;28;20056;-78
2021/08/14 01:25:39;;;;;;;10.30;2.30;;;;;;;;;;4925411;29;20117;-78
2021/08/14 01:28:09;;;;;;;10.90;2.42;;;;;;;;;;4901761;29;20043;-80
2021/08/14 01:30:36;;;;;;;10.80;2.83;;;;;;;;;;4937832;28;20035;-79
2021/08/14 01:33:12;;;;;;;8.02;2.65;;;;;;;;;;4932738;29;20067;-77
2021/08/14 01:35:42;;;;;;;12.60;2.58;;;;;;;;;;4907912;28;20042;-78
2021/08/14 01:38:09;;;;;;;11.18;2.20;;;;;;;;;;4943276;28;20050;-76
2021/08/14 01:40:35;;;;;;;8.13;2.33;;;;;;;;;;4931074;28;20260;-78
2021/08/14 01:43:02;;;;;;;11.70;2.83;;;;;;;;;;4942289;29;20031;-79
2021/08/14 01:45:28;;;;;;;13.18;3.00;;;;;;;;;;4926445;28;20059;-78
2021/08/14 01:47:55;;;;;;;9.05;2.50;;;;;;;;;;4919075;29;20122;-78
2021/08/14 01:50:21;;;;;;;7.90;2.10;;;;;;;;;;4930103;29;20115;-78
2021/08/14 01:52:51;;;;;;;8.77;2.88;;;;;;;;;;4947296;28;20035;-79
2021/08/14 01:55:17;;;;;;;11.50;2.97;;;;;;;;;;4931531;28;20039;-78
2021/08/14 01:57:49;;;;;;;7.32;2.13;;;;;;;;;;4937936;28;20035;-78
2021/08/14 02:00:16;;;;;;;8.55;2.55;;;;;;;;;;4941365;28;20059;-77
2021/08/14 02:02:42;;;;;;;8.98;2.28;;;;;;;;;;4922954;28;20129;-78
2021/08/14 02:05:09;;;;;;;11.63;2.28;;;;;;;;;;4945326;28;20154;-77
2021/08/14 02:07:35;;;;;;;10.23;2.30;;;;;;;;;;4949796;29;20182;-77
2021/08/14 02:10:01;;;;;;;8.25;2.65;;;;;;;;;;4943541;28;20436;-77
2021/08/14 02:12:28;;;;;;;12.38;2.65;;;;;;;;;;4948159;28;20051;-77
2021/08/14 02:14:54;;;;;;;11.73;3.28;;;;;;;;;;4945418;29;20099;-77
2021/08/14 02:17:21;;;;;;;6.60;2.45;;;;;;;;;;4948672;28;20058;-77
2021/08/14 02:19:47;;;;;;;10.57;2.45;;;;;;;;;;4926770;29;20121;-77
2021/08/14 02:22:13;;;;;;;12.13;2.47;;;;;;;;;;4945111;28;20138;-77
2021/08/14 02:24:40;;;;;;;10.35;2.83;;;;;;;;;;4932384;28;20555;-76
2021/08/14 02:27:06;;;;;;;8.10;2.25;;;;;;;;;;4943495;29;20070;-75
2021/08/14 02:29:34;;;;;;;7.18;2.13;;;;;;;;;;4936386;28;20047;-77
2021/08/14 02:32:01;;;;;;;14.15;2.78;;;;;;;;;;4946595;28;20070;-77
2021/08/14 02:34:28;;;;;;;7.47;2.40;;;;;;;;;;4945247;28;20098;-77
2021/08/14 02:36:54;;;;;;;11.55;2.45;;;;;;;;;;4944080;28;20199;-76
2021/08/14 02:39:20;;;;;;;11.30;2.70;;;;;;;;;;4917053;29;20059;-77
2021/08/14 02:41:47;;;;;;;9.18;2.38;;;;;;;;;;4936517;29;20066;-77
2021/08/14 02:44:13;;;;;;;11.45;2.58;;;;;;;;;;4938030;29;20761;-77
2021/08/14 02:46:39;;;;;;;10.13;2.08;;;;;;;;;;4935979;28;20074;-76
2021/08/14 02:49:06;;;;;;;8.02;2.25;;;;;;;;;;4941851;28;20066;-76
2021/08/14 02:51:32;;;;;;;12.02;2.17;;;;;;;;;;4945123;28;20059;-77
2021/08/14 02:53:59;;;;;;;8.73;2.40;;;;;;;;;;4938976;28;20062;-76
2021/08/14 02:56:25;;;;;;;9.68;2.42;;;;;;;;;;4936782;28;20054;-78
2021/08/14 02:58:51;;;;;;;9.27;2.40;;;;;;;;;;4935847;28;20055;-76
2021/08/14 03:01:18;;;;;;;13.65;2.88;;;;;;;;;;4936463;28;20063;-77
2021/08/14 03:03:44;;;;;;;11.77;2.60;;;;;;;;;;4919225;28;20114;-77
2021/08/14 03:06:26;;;;;;;11.00;2.80;;;;;;;;;;4929561;29;20129;-77
2021/08/14 03:08:53;;;;;;;12.18;2.55;;;;;;;;;;4939587;28;20059;-77
2021/08/14 03:11:19;;;;;;;9.60;3.15;;;;;;;;;;4929738;28;20055;-77
2021/08/14 03:13:46;;;;;;;10.60;2.22;;;;;;;;;;4934909;28;20095;-77
2021/08/14 03:16:12;;;;;;;14.48;3.13;;;;;;;;;;4934795;29;20028;-77
2021/08/14 03:18:39;;;;;;;12.23;2.72;;;;;;;;;;4943875;28;20423;-77
2021/08/14 03:21:05;;;;;;;10.88;2.72;;;;;;;;;;4947494;28;20059;-78
2021/08/14 03:23:31;;;;;;;10.35;2.50;;;;;;;;;;4938712;28;20074;-77
2021/08/14 03:25:58;;;;;;;9.30;2.30;;;;;;;;;;4930357;29;20075;-78
2021/08/14 03:28:24;;;;;;;8.07;2.10;;;;;;;;;;4939623;29;20071;-78
2021/08/14 03:30:51;;;;;;;11.15;2.58;;;;;;;;;;4941750;28;20106;-79
2021/08/14 03:33:20;;;;;;;12.30;2.35;;;;;;;;;;4938872;28;20799;-77
2021/08/14 03:35:46;;;;;;;10.20;2.22;;;;;;;;;;4934409;29;20071;-77
2021/08/14 03:38:13;;;;;;;8.30;2.15;;;;;;;;;;4939090;28;20077;-77
2021/08/14 03:40:39;;;;;;;10.27;2.22;;;;;;;;;;4934835;28;20098;-77
2021/08/14 03:43:06;;;;;;;9.65;2.70;;;;;;;;;;4934188;29;20097;-76
2021/08/14 03:45:32;;;;;;;11.48;2.80;;;;;;;;;;4941206;28;20063;-77
2021/08/14 03:47:58;;;;;;;8.52;2.38;;;;;;;;;;4945517;28;20074;-77
2021/08/14 03:50:25;;;;;;;7.38;2.05;;;;;;;;;;4932623;28;20059;-77
2021/08/14 03:52:51;;;;;;;13.65;2.70;;;;;;;;;;4932003;28;20063;-77
2021/08/14 03:55:17;;;;;;;12.48;2.65;;;;;;;;;;4933143;28;20051;-77
2021/08/14 03:57:44;;;;;;;9.30;2.22;;;;;;;;;;4935090;28;20059;-77
2021/08/14 04:00:10;;;;;;;9.45;1.92;;;;;;;;;;4936940;28;20075;-78
2021/08/14 04:02:37;;;;;;;7.13;2.25;;;;;;;;;;4928936;28;20056;-78
2021/08/14 04:05:03;;;;;;;9.35;2.10;;;;;;;;;;4930714;29;20144;-78
2021/08/14 04:07:30;;;;;;;10.18;2.35;;;;;;;;;;4941133;29;20063;-78
2021/08/14 04:09:56;;;;;;;11.48;2.70;;;;;;;;;;4923467;29;20067;-78
2021/08/14 04:12:23;;;;;;;13.98;2.33;;;;;;;;;;4934530;28;20036;-78
2021/08/14 04:14:49;;;;;;;7.32;2.08;;;;;;;;;;4921643;28;20103;-78
2021/08/14 04:17:16;;;;;;;10.00;2.50;;;;;;;;;;4941851;28;20071;-77
2021/08/14 04:19:42;;;;;;;13.07;2.20;;;;;;;;;;4942396;28;20058;-77
2021/08/14 04:22:08;;;;;;;9.85;2.53;;;;;;;;;;4934295;28;20186;-78
2021/08/14 04:24:35;;;;;;;8.10;1.95;;;;;;;;;;4935045;28;20117;-78
2021/08/14 04:27:02;;;;;;;8.98;2.47;;;;;;;;;;4938622;28;20118;-77
2021/08/14 04:29:28;;;;;;;10.07;2.38;;;;;;;;;;4941288;28;20062;-77
2021/08/14 04:31:55;;;;;;;9.65;2.20;;;;;;;;;;4932079;28;20126;-78
2021/08/14 04:34:21;;;;;;;7.65;2.20;;;;;;;;;;4927758;28;20533;-77
2021/08/14 04:36:47;;;;;;;8.18;2.08;;;;;;;;;;4944243;28;20132;-77
2021/08/14 04:39:14;;;;;;;8.20;2.35;;;;;;;;;;4941726;28;20106;-78
2021/08/14 04:41:40;;;;;;;10.05;2.20;;;;;;;;;;4934135;28;20090;-77
2021/08/14 04:44:07;;;;;;;7.97;1.98;;;;;;;;;;4951470;28;20137;-77
2021/08/14 04:46:33;;;;;;;9.70;2.20;;;;;;;;;;4930530;28;20067;-75
2021/08/14 04:49:00;;;;;;;8.27;2.10;;;;;;;;;;4936969;28;20067;-76
2021/08/14 04:51:26;;;;;;;8.23;2.03;;;;;;;;;;4939527;29;20062;-76
2021/08/14 04:53:52;;;;;;;7.53;2.13;;;;;;;;;;4936431;28;20779;-76
2021/08/14 04:56:19;;;;;;;11.43;2.63;;;;;;;;;;4941284;28;20063;-77
2021/08/14 04:58:45;;;;;;;8.77;2.25;;;;;;;;;;4933575;28;20134;-77
2021/08/14 05:01:12;;;;;;;6.32;1.75;;;;;;;;;;4937609;28;20059;-77
2021/08/14 05:03:38;;;;;;;7.80;2.20;;;;;;;;;;4933838;28;20062;-77
2021/08/14 05:06:07;;;;;;;8.15;2.42;;;;;;;;;;4927544;29;20060;-76
2021/08/14 05:08:33;;;;;;;11.40;2.47;;;;;;;;;;4944880;28;20054;-77
2021/08/14 05:11:00;;;;;;;9.57;2.63;;;;;;;;;;4928905;28;20074;-77
2021/08/14 05:13:26;;;;;;;12.13;2.58;;;;;;;;;;4943543;28;20741;-78
2021/08/14 05:15:52;;;;;;;8.23;1.90;;;;;;;;;;4947201;28;20043;-77
2021/08/14 05:18:19;;;;;;;10.75;1.95;;;;;;;;;;4928985;28;20031;-78
2021/08/14 05:20:45;;;;;;;6.35;2.00;;;;;;;;;;4939131;28;20055;-77
2021/08/14 05:23:12;;;;;;;10.60;2.65;;;;;;;;;;4936646;29;20150;-77
2021/08/14 05:25:38;;;;;;;11.77;3.05;;;;;;;;;;4944089;29;20499;-77
2021/08/14 05:28:05;;;;;;;6.95;2.42;;;;;;;;;;4943040;28;20047;-78
2021/08/14 05:30:31;;;;;;;10.82;2.75;;;;;;;;;;4944179;28;20074;-79
2021/08/14 05:32:58;;;;;;;10.35;2.30;;;;;;;;;;4938995;29;20066;-78
2021/08/14 05:35:24;;;;;;;10.13;2.63;;;;;;;;;;4933489;28;20083;-78
2021/08/14 05:37:51;;;;;;;14.25;2.90;;;;;;;;;;4938945;28;20138;-78
2021/08/14 05:40:17;;;;;;;11.63;2.45;;;;;;;;;;4935561;28;20055;-78
2021/08/14 05:42:45;;;;;;;10.40;2.42;;;;;;;;;;4940317;29;20129;-79
2021/08/14 05:45:13;;;;;;;8.07;2.20;;;;;;;;;;4923099;29;20047;-78
2021/08/14 05:47:39;;;;;;;13.05;2.55;;;;;;;;;;4935298;28;20588;-78
2021/08/14 05:50:06;;;;;;;13.27;2.88;;;;;;;;;;4940187;28;20079;-78
2021/08/14 05:52:32;;;;;;;11.30;2.72;;;;;;;;;;4921258;28;20521;-79
2021/08/14 05:54:59;;;;;;;8.43;1.80;;;;;;;;;;4939897;29;20668;-78
2021/08/14 05:57:26;;;;;;;5.53;1.98;;;;;;;;;;4939725;28;20078;-78
2021/08/14 05:59:52;;;;;;;9.88;2.28;;;;;;;;;;4936096;29;20042;-79
2021/08/14 06:02:19;;;;;;;7.90;2.13;;;;;;;;;;4933996;28;20499;-79
2021/08/14 06:04:45;;;;;;;14.35;2.72;;;;;;;;;;4932021;28;20063;-79
2021/08/14 06:07:11;;;;;;;8.38;2.22;;;;;;;;;;4943309;29;20102;-80
2021/08/14 06:09:38;;;;;;;6.80;1.98;;;;;;;;;;4942590;28;20047;-79
2021/08/14 06:12:04;;;;;;;8.02;2.42;;;;;;;;;;4944916;28;20114;-79
2021/08/14 06:14:32;;;;;;;8.00;2.15;;;;;;;;;;4940249;28;20067;-78
2021/08/14 06:16:58;;;;;;;11.90;2.40;;;;;;;;;;4914388;29;20137;-79
2021/08/14 06:19:25;;;;;;;8.35;2.20;;;;;;;;;;4942687;28;20626;-78
2021/08/14 06:21:57;;;;;;;6.55;2.42;;;;;;;;;;4952299;28;20109;-80
2021/08/14 06:24:32;;;;;;;8.63;2.10;;;;;;;;;;4898541;29;20039;-79
2021/08/14 06:27:01;;;;;;;6.95;2.20;;;;;;;;;;4932671;28;20110;-80
2021/08/14 06:29:28;;;;;;;10.48;2.22;;;;;;;;;;4914155;28;20035;-80
2021/08/14 06:32:06;;;;;;;6.30;1.88;;;;;;;;;;4922943;28;20028;-79
2021/08/14 06:34:34;;;;;;;7.97;2.03;;;;;;;;;;4933282;29;20027;-80
2021/08/14 06:37:01;;;;;;;6.25;1.73;;;;;;;;;;4919260;29;20047;-80
2021/08/14 06:39:28;;;;;;;7.55;2.03;;;;;;;;;;4920945;28;20587;-80
2021/08/14 06:41:55;;;;;;;8.93;1.98;;;;;;;;;;4928726;28;20044;-82
2021/08/14 06:44:34;;;;;;;5.47;1.73;;;;;;;;;;4918080;29;20119;-79
2021/08/14 06:47:01;;;;;;;4.57;1.88;;;;;;;;;;4928442;29;20062;-79
2021/08/14 06:49:29;;;;;;;7.03;2.13;;;;;;;;;;4930296;28;20024;-79
2021/08/14 06:51:55;;;;;;;6.53;2.40;;;;;;;;;;4945936;28;20067;-79
2021/08/14 06:54:22;;;;;;;6.53;1.98;;;;;;;;;;4930929;29;20081;-79
2021/08/14 06:56:48;;;;;;;5.05;1.65;;;;;;;;;;4920001;29;20063;-79
2021/08/14 06:59:15;;;;;;;7.82;2.25;;;;;;;;;;4950675;28;20063;-77
2021/08/14 07:01:41;;;;;;;6.82;2.10;;;;;;;;;;4936373;28;20058;-78
2021/08/14 07:04:07;;;;;;;4.40;1.67;;;;;;;;;;4921027;29;20337;-78
2021/08/14 07:06:34;;;;;;;7.28;2.03;;;;;;;;;;4936718;29;20074;-77
2021/08/14 07:09:00;;;;;;;4.95;1.85;;;;;;;;;;4939316;28;20654;-76
2021/08/14 07:11:27;;;;;;;4.22;2.25;;;;;;;;;;4941878;28;20078;-77
2021/08/14 07:13:53;;;;;;;6.30;1.70;;;;;;;;;;4942684;28;20070;-78
2021/08/14 07:16:20;;;;;;;5.32;2.15;;;;;;;;;;4925673;28;20058;-77
2021/08/14 07:18:47;;;;;;;6.38;1.63;;;;;;;;;;4910083;29;20069;-78
2021/08/14 07:21:13;;;;;;;9.65;2.80;;;;;;;;;;4945381;28;20526;-77
2021/08/14 07:23:40;;;;;;;6.90;1.73;;;;;;;;;;4942414;28;20083;-79
2021/08/14 07:26:07;;;;;;;7.43;1.88;;;;;;;;;;4954350;28;20047;-79
2021/08/14 07:28:33;;;;;;;7.05;2.15;;;;;;;;;;4921720;29;20063;-79
2021/08/14 07:31:00;;;;;;;4.80;1.58;;;;;;;;;;4944564;28;20067;-78
2021/08/14 07:33:26;;;;;;;6.45;1.92;;;;;;;;;;4946396;28;20066;-79
2021/08/14 07:35:52;;;;;;;5.05;1.50;;;;;;;;;;4929332;28;20113;-78
2021/08/14 07:38:19;;;;;;;4.38;1.70;;;;;;;;;;4934577;28;20067;-78
2021/08/14 07:40:45;;;;;;;6.40;1.90;;;;;;;;;;4937401;28;20067;-79
2021/08/14 07:43:12;;;;;;;7.20;1.80;;;;;;;;;;4946916;28;20468;-78
2021/08/14 07:45:38;;;;;;;6.65;1.50;;;;;;;;;;4926075;29;20098;-79
2021/08/14 07:48:05;;;;;;;4.28;1.50;;;;;;;;;;4940717;28;20063;-78
2021/08/14 07:50:32;;;;;;;6.05;1.63;;;;;;;;;;4927404;29;20135;-79
2021/08/14 07:52:59;;;;;;;5.70;1.73;;;;;;;;;;4946174;29;20063;-79
2021/08/14 07:55:29;;;;;;;5.95;1.88;;;;;;;;;;4943542;28;20141;-79
2021/08/14 07:57:56;;;;;;;5.45;1.73;;;;;;;;;;4938171;28;20558;-78
2021/08/14 08:00:23;;;;;;;4.82;1.70;;;;;;;;;;4929466;28;20060;-78
2021/08/14 08:02:50;;;;;;;4.45;1.60;;;;;;;;;;4928101;29;20523;-78
2021/08/14 08:05:17;;;;;;;4.95;1.48;;;;;;;;;;4933208;28;20104;-78
2021/08/14 08:07:44;;;;;;;5.03;1.67;;;;;;;;;;4935679;28;20416;-78
2021/08/14 08:10:15;;;;;;;3.78;1.50;;;;;;;;;;4934296;29;20068;-78
2021/08/14 08:12:41;;;;;;;3.97;1.83;;;;;;;;;;4933088;29;20043;-77
2021/08/14 08:15:08;;;;;;;5.10;1.42;;;;;;;;;;4932615;28;20070;-78
2021/08/14 08:17:35;;;;;;;4.20;1.67;;;;;;;;;;4938247;28;20059;-77
2021/08/14 08:20:01;;;;;;;4.80;1.70;;;;;;;;;;4936011;28;20074;-77
2021/08/14 08:22:28;;;;;;;6.15;2.00;;;;;;;;;;4920904;29;20500;-77
2021/08/14 08:24:55;;;;;;;6.30;2.00;;;;;;;;;;4919984;29;20136;-76
2021/08/14 08:27:22;;;;;;;4.70;1.73;;;;;;;;;;4918537;28;20505;-78
2021/08/14 08:29:49;;;;;;;5.45;1.83;;;;;;;;;;4916611;29;20063;-79
2021/08/14 08:32:16;;;;;;;6.68;1.75;;;;;;;;;;4935321;28;20067;-77
2021/08/14 08:34:42;;;;;;;4.18;1.77;;;;;;;;;;4920048;29;20768;-76
2021/08/14 08:37:08;;;;;;;6.22;1.60;;;;;;;;;;4916878;28;20071;-78
2021/08/14 08:39:37;;;;;;;6.05;2.10;;;;;;;;;;4912990;29;20071;-78
2021/08/14 08:42:03;;;;;;;6.60;2.10;;;;;;;;;;4916065;29;20471;-77
2021/08/14 08:44:30;;;;;;;5.78;1.70;;;;;;;;;;4914115;29;20127;-77
2021/08/14 08:46:56;;;;;;;5.20;2.17;;;;;;;;;;4918112;29;20747;-76
2021/08/14 08:49:23;;;;;;;8.52;1.70;;;;;;;;;;4910725;29;20067;-77
2021/08/14 08:51:50;;;;;;;10.23;2.05;;;;;;;;;;4920114;29;20134;-77
2021/08/14 08:54:17;;;;;;;6.55;1.88;;;;;;;;;;4923230;28;20071;-77
2021/08/14 08:56:44;;;;;;;4.15;1.70;;;;;;;;;;4920293;28;20055;-78
2021/08/14 08:59:11;;;;;;;6.63;1.98;;;;;;;;;;4920088;29;20520;-79
2021/08/14 09:01:43;;;;;;;5.22;2.10;;;;;;;;;;4915901;28;20059;-78
2021/08/14 09:04:29;;;;;;;5.70;2.00;;;;;;;;;;4922880;29;20047;-77
2021/08/14 09:06:57;;;;;;;6.63;2.00;;;;;;;;;;4916585;29;20075;-73
2021/08/14 09:09:26;;;;;;;6.47;2.63;;;;;;;;;;4913906;28;20091;-80
2021/08/14 09:11:53;;;;;;;9.95;2.53;;;;;;;;;;4900820;29;20134;-81
2021/08/14 09:14:20;;;;;;;8.43;2.90;;;;;;;;;;4917089;28;20468;-86
2021/08/14 09:17:02;;;;;;;10.98;3.47;;;;;;;;;;4916375;29;20136;-79
2021/08/14 09:19:29;;;;;;;7.03;2.47;;;;;;;;;;4913191;29;20088;-79
2021/08/14 09:21:55;;;;;;;12.98;3.30;;;;;;;;;;4918852;29;20162;-80
2021/08/14 09:24:33;;;;;;;6.45;2.58;;;;;;;;;;4932829;28;20503;-80
2021/08/14 09:27:01;;;;;;;9.98;3.45;;;;;;;;;;4935659;28;20071;-80
2021/08/14 09:29:32;;;;;;;10.77;2.75;;;;;;;;;;4936234;28;20113;-81
2021/08/14 09:31:59;;;;;;;8.45;2.55;;;;;;;;;;4934704;28;20071;-79
2021/08/14 09:34:26;;;;;;;13.27;3.45;;;;;;;;;;4933905;29;20067;-82
2021/08/14 09:37:01;;;;;;;16.02;3.40;;;;;;;;;;4938006;28;20031;-82
2021/08/14 09:39:31;;;;;;;9.25;2.75;;;;;;;;;;4915339;29;20067;-83
2021/08/14 09:42:03;;;;;;;10.30;3.23;;;;;;;;;;4922278;29;20063;-82
2021/08/14 09:44:30;;;;;;;7.70;2.67;;;;;;;;;;4950190;28;20123;-82
2021/08/14 09:46:56;;;;;;;10.38;3.47;;;;;;;;;;4938608;28;20072;-83
2021/08/14 09:49:24;;;;;;;9.02;2.47;;;;;;;;;;4938446;28;20054;-82
2021/08/14 09:51:50;;;;;;;12.43;3.13;;;;;;;;;;4936754;29;20449;-83
2021/08/14 09:54:16;;;;;;;10.10;2.92;;;;;;;;;;4942254;28;20067;-82
2021/08/14 09:56:43;;;;;;;8.38;2.45;;;;;;;;;;4913473;28;20468;-82
2021/08/14 09:59:09;;;;;;;8.70;2.63;;;;;;;;;;4932143;28;20063;-83
2021/08/14 10:01:40;;;;;;;8.70;2.63;;;;;;;;;;4934891;28;20750;-82
2021/08/14 10:04:07;;;;;;;11.10;2.83;;;;;;;;;;4939070;28;20532;-82
2021/08/14 10:06:33;;;;;;;5.40;2.60;;;;;;;;;;4940047;29;20550;-83
2021/08/14 10:09:00;;;;;;;10.10;3.00;;;;;;;;;;4925349;29;20027;-82
2021/08/14 10:11:26;;;;;;;8.57;2.70;;;;;;;;;;4942925;29;20071;-82
2021/08/14 10:13:53;;;;;;;6.97;2.50;;;;;;;;;;4938708;28;20066;-82
2021/08/14 10:16:19;;;;;;;8.55;2.65;;;;;;;;;;4945055;28;20066;-83
2021/08/14 10:18:46;;;;;;;8.25;3.25;;;;;;;;;;4935931;29;20070;-82
2021/08/14 10:21:14;;;;;;;9.75;3.00;;;;;;;;;;4932381;29;20150;-82
2021/08/14 10:23:41;;;;;;;8.45;2.83;;;;;;;;;;4942444;28;20075;-82
2021/08/14 10:26:08;;;;;;;8.18;2.65;;;;;;;;;;4945732;28;20078;-82
2021/08/14 10:28:45;;;;;;;9.65;2.80;;;;;;;;;;4935177;28;20063;-82
2021/08/14 10:31:29;;;;;;;9.00;3.03;;;;;;;;;;4951565;28;20063;-82
2021/08/14 10:33:56;;;;;;;9.50;2.60;;;;;;;;;;4929587;29;20039;-82
2021/08/14 10:36:26;;;;;;;9.85;2.83;;;;;;;;;;4938540;28;20059;-83
2021/08/14 10:38:53;;;;;;;10.87;2.87;;;;;;;;;;4922560;29;20118;-82
2021/08/14 10:41:20;;;;;;;8.48;2.47;;;;;;;;;;4920522;29;20146;-82
2021/08/14 10:43:52;;;;;;;10.93;3.20;;;;;;;;;;4936309;28;20384;-83
2021/08/14 10:46:37;;;;;;;7.95;3.17;;;;;;;;;;4935470;28;20783;-81
2021/08/14 10:49:04;;;;;;;11.30;3.10;;;;;;;;;;4926467;29;20067;-82
2021/08/14 10:51:52;;;;;;;9.60;2.90;;;;;;;;;;4945288;28;20110;-81
2021/08/14 10:54:38;;;;;;;6.28;2.42;;;;;;;;;;4940982;28;20114;-82
2021/08/14 10:57:08;;;;;;;6.75;2.25;;;;;;;;;;4938280;28;20090;-82
2021/08/14 10:59:40;;;;;;;10.43;3.28;;;;;;;;;;4927936;29;20043;-83
2021/08/14 11:02:07;;;;;;;8.90;2.38;;;;;;;;;;4945677;28;20605;-82
2021/08/14 11:04:40;;;;;;;5.43;2.10;;;;;;;;;;4942922;28;20063;-83
2021/08/14 11:07:19;;;;;;;7.53;2.60;;;;;;;;;;4932108;29;20153;-82
2021/08/14 11:09:46;;;;;;;8.23;2.50;;;;;;;;;;4945016;28;20170;-82
2021/08/14 11:12:12;;;;;;;6.35;2.58;;;;;;;;;;4939331;28;20570;-80
2021/08/14 11:14:40;;;;;;;6.38;2.40;;;;;;;;;;4941366;28;20784;-82
2021/08/14 11:17:07;;;;;;;5.82;2.47;;;;;;;;;;4939945;28;20071;-82
2021/08/14 11:19:43;;;;;;;10.02;3.05;;;;;;;;;;4946652;29;20094;-82
2021/08/14 11:22:19;;;;;;;5.07;2.17;;;;;;;;;;4947743;28;20093;-83
2021/08/14 11:24:46;;;;;;;8.38;2.70;;;;;;;;;;4942055;28;20506;-83
2021/08/14 11:27:26;;;;;;;5.55;2.47;;;;;;;;;;4939342;28;20144;-82
2021/08/14 11:30:00;;;;;;;7.25;2.58;;;;;;;;;;4932216;29;20428;-82
2021/08/14 11:32:27;;;;;;;5.97;2.08;;;;;;;;;;4935808;28;20125;-82
2021/08/14 11:34:54;;;;;;;4.30;2.20;;;;;;;;;;4941307;28;20193;-82
2021/08/14 11:37:21;;;;;;;6.90;2.50;;;;;;;;;;4938893;28;20137;-81
2021/08/14 11:39:54;;;;;;;6.13;2.38;;;;;;;;;;4949905;28;20440;-82
2021/08/14 11:42:22;;;;;;;7.82;2.42;;;;;;;;;;4937820;28;20546;-82
2021/08/14 11:44:54;;;;;;;6.15;2.38;;;;;;;;;;4950295;28;20067;-82
2021/08/14 11:47:29;;;;;;;7.30;2.40;;;;;;;;;;4936640;29;20076;-82
2021/08/14 11:49:56;;;;;;;6.55;2.53;;;;;;;;;;4949143;29;20027;-81
2021/08/14 11:52:26;;;;;;;5.90;2.28;;;;;;;;;;4950318;28;20425;-81
2021/08/14 11:55:01;;;;;;;8.48;2.60;;;;;;;;;;4939814;28;20056;-81
2021/08/14 11:57:29;;;;;;;9.02;2.90;;;;;;;;;;4944260;28;20063;-82
2021/08/14 11:59:59;;;;;;;8.07;2.53;;;;;;;;;;4939924;28;20038;-83
2021/08/14 12:02:28;;;;;;;5.35;2.38;;;;;;;;;;4937691;29;20492;-83
2021/08/14 12:04:55;;;;;;;7.88;2.55;;;;;;;;;;4946199;28;20066;-84
2021/08/14 12:07:22;;;;;;;6.05;2.63;;;;;;;;;;4943076;28;20070;-83
2021/08/14 12:09:52;;;;;;;6.95;2.80;;;;;;;;;;4939134;28;20118;-83
2021/08/14 12:12:21;;;;;;;8.25;2.97;;;;;;;;;;4939461;28;20059;-82
2021/08/14 12:14:48;;;;;;;7.32;3.22;;;;;;;;;;4938297;28;20535;-82
2021/08/14 12:17:15;;;;;;;6.55;3.00;;;;;;;;;;4944727;28;20047;-84
2021/08/14 12:19:55;;;;;;;5.43;2.42;;;;;;;;;;4934946;28;20083;-85
2021/08/14 12:22:28;;;;;;;5.95;2.70;;;;;;;;;;4932587;28;20076;-83
2021/08/14 12:24:55;;;;;;;5.47;2.35;;;;;;;;;;4943626;28;20212;-83
2021/08/14 12:27:27;;;;;;;8.43;3.05;;;;;;;;;;4922286;29;20067;-83
2021/08/14 12:29:54;;;;;;;6.25;2.83;;;;;;;;;;4941723;28;20057;-83
2021/08/14 12:32:28;;;;;;;11.50;2.97;;;;;;;;;;4932239;28;20122;-84
2021/08/14 12:35:12;;;;;;;6.45;2.58;;;;;;;;;;4934393;29;20091;-82
2021/08/14 12:58:30;;;;;;;8.35;3.15;;;;;;;;;;5179277;23;25068;-81
2021/08/14 13:00:57;;;;;;;6.35;2.40;;;;;;;;;;4963654;28;20109;-75
2021/08/14 13:03:24;;;;;;;5.82;2.47;;;;;;;;;;4963426;28;20057;-75
2021/08/14 13:05:51;;;;;;;12.25;3.17;;;;;;;;;;4964845;28;20081;-77
2021/08/14 13:08:17;;;;;;;8.75;3.00;;;;;;;;;;4964138;28;20074;-76
2021/08/14 13:10:45;;;;;;;11.88;3.17;;;;;;;;;;4965721;28;20054;-78
2021/08/14 13:13:13;;;;;;;8.05;3.15;;;;;;;;;;4963780;28;20427;-79
2021/08/14 13:15:39;;;;;;;7.65;2.88;;;;;;;;;;4964862;28;21213;-77
2021/08/14 13:18:06;;;;;;;7.60;2.97;;;;;;;;;;4967137;28;20156;-77
2021/08/14 13:20:32;;;;;;;7.47;2.70;;;;;;;;;;4963939;28;20055;-76
2021/08/14 13:22:58;;;;;;;8.10;2.50;;;;;;;;;;4967500;28;20572;-77
2021/08/14 13:25:25;;;;;;;9.07;3.00;;;;;;;;;;4959004;28;20062;-77
2021/08/14 13:27:53;;;;;;;7.03;2.67;;;;;;;;;;4965890;28;20042;-77
2021/08/14 13:30:20;;;;;;;6.45;2.92;;;;;;;;;;4966725;28;20532;-77
2021/08/14 13:32:47;;;;;;;6.75;2.63;;;;;;;;;;4949611;28;20066;-77
2021/08/14 13:35:14;;;;;;;7.13;2.88;;;;;;;;;;4964442;28;20510;-77
2021/08/14 13:37:42;;;;;;;6.45;2.65;;;;;;;;;;4956460;28;20054;-77
2021/08/14 13:40:09;;;;;;;8.68;2.80;;;;;;;;;;4963804;28;20063;-77
2021/08/14 13:42:36;;;;;;;11.15;2.97;;;;;;;;;;4956637;28;20058;-78
2021/08/14 13:45:03;;;;;;;6.75;2.88;;;;;;;;;;4967634;28;20453;-78
2021/08/14 13:47:30;;;;;;;8.38;3.60;;;;;;;;;;4965321;28;20070;-77
2021/08/14 13:49:56;;;;;;;6.93;2.95;;;;;;;;;;4965923;28;20069;-77
2021/08/14 13:52:23;;;;;;;5.90;2.80;;;;;;;;;;4964496;28;20134;-77
2021/08/14 13:54:49;;;;;;;6.85;2.78;;;;;;;;;;4967007;28;20054;-76
2021/08/14 13:57:16;;;;;;;6.10;3.13;;;;;;;;;;4954876;28;20063;-77
2021/08/14 13:59:43;;;;;;;8.95;2.88;;;;;;;;;;4947227;28;20063;-76
2021/08/14 14:02:12;;;;;;;6.25;2.90;;;;;;;;;;4948517;28;20647;-76
2021/08/14 14:04:39;;;;;;;9.10;2.90;;;;;;;;;;4944031;28;21622;-76
2021/08/14 14:07:05;;;;;;;6.32;2.75;;;;;;;;;;4929885;29;20825;-76
2021/08/14 14:09:32;;;;;;;7.40;2.88;;;;;;;;;;4947527;28;20065;-76
2021/08/14 14:11:59;;;;;;;5.25;2.67;;;;;;;;;;4949371;28;20065;-76
2021/08/14 14:14:26;;;;;;;5.85;2.70;;;;;;;;;;4947037;28;20051;-76
2021/08/14 14:16:52;;;;;;;5.20;2.85;;;;;;;;;;4949368;28;20051;-76
2021/08/14 14:19:19;;;;;;;8.57;2.80;;;;;;;;;;4948481;28;20091;-77
2021/08/14 14:21:46;;;;;;;7.70;3.08;;;;;;;;;;4934131;28;20062;-75
2021/08/14 14:24:12;;;;;;;7.57;2.90;;;;;;;;;;4946657;28;20515;-77
2021/08/14 14:26:39;;;;;;;9.15;2.95;;;;;;;;;;4928130;28;20484;-78
2021/08/14 14:29:05;;;;;;;5.88;2.55;;;;;;;;;;4926349;29;20082;-77
2021/08/14 14:31:33;;;;;;;5.15;2.50;;;;;;;;;;4945877;28;20611;-76
2021/08/14 14:33:59;;;;;;;6.47;2.72;;;;;;;;;;4948784;28;20074;-78
2021/08/14 14:36:25;;;;;;;6.38;2.88;;;;;;;;;;4945235;28;20423;-77
2021/08/14 14:38:52;;;;;;;6.57;2.50;;;;;;;;;;4945725;28;20122;-78
2021/08/14 14:41:18;;;;;;;6.57;2.45;;;;;;;;;;4936394;28;20071;-77
2021/08/14 14:43:44;;;;;;;8.27;3.08;;;;;;;;;;4946559;28;20055;-77
2021/08/14 14:46:14;;;;;;;5.90;2.45;;;;;;;;;;4936313;28;20031;-77
2021/08/14 14:48:41;;;;;;;5.82;2.60;;;;;;;;;;4948092;28;20759;-79
2021/08/14 14:51:08;;;;;;;5.95;2.60;;;;;;;;;;4949954;28;20063;-76
2021/08/14 14:53:35;;;;;;;7.90;2.63;;;;;;;;;;4948920;28;20059;-79
2021/08/14 14:56:02;;;;;;;4.82;2.40;;;;;;;;;;4948370;28;20702;-76
2021/08/14 14:58:28;;;;;;;6.68;2.08;;;;;;;;;;4947787;28;20071;-76
2021/08/14 15:00:55;;;;;;;4.22;2.13;;;;;;;;;;4949824;28;20059;-78
2021/08/14 15:03:21;;;;;;;5.43;2.00;;;;;;;;;;4948507;28;20062;-76
2021/08/14 15:05:47;;;;;;;4.85;2.70;;;;;;;;;;4948398;28;20564;-75